Etusivu
METAR-TAF:

METAR-TAF

Lentoasemat :

Sint Maarten, Alankomaiden Antillit

Prinsessa Julianan lentoasema

Leveyspiiri: 18-03N, Pituuspiiri: 063-07W, korkeus merenpinnasta: 4 m

Tämänhetkinen sää

Tämä raportti tehtiin 22 minuuttia sitten, kello 05.00 UTC
Tuuli 11 kn idästä
Lämpötila 28°C
Kosteus 84%
Ilmanpaine 1018 hPa
Näkyvyys 10 km tai enemmän
Muutamia pilviä 2000 ft:n korkeudessa

METAR: TNCM 250500Z 10011KT 9999 FEW020 28/25 Q1018 A3007

Aika: 01:22 (05:22 UTC)

Sääennuste

Tämä raportti tehtiin 6 tuntia ja 2 minuuttia sitten, kello 23.20 UTC
Ennuste voimassa 25. päivästä klo 00 UTC - 25. päivään klo 24 UTC
Tuuli 8 kn idästä
Näkyvyys: 10 km
Muutamia pilviä 2200 ft:n korkeudessa
From 25. päivästä klo 1300 UTC
Tuuli 12 kn kaakosta
Näkyvyys: 10 km
Hajanaisia pilviä 2500 ft:n korkeudessa

TAF: TNCM 242320Z 2500/2524 10008KT P6SM FEW022 FM251300 13012KT P6SM SCT025

Säähavainnot ja -ennusteet yli 4000 lentoasemalta (METAR- ja TAF-raportit).

Käytössä olevat sääasemat on merkitty karttaan keltaisilla ja punaisilla pisteillä.

Aseta hiiri pisteen päälle nähdäksesi sääaseman nimen.

Klikkaa sitten nähdäksesi säähavainnot ja -ennusteet.

Kartan vaihtaminen: klikkaa mustalla rastilla varustettuja vihreitä pisteitä, niin voit zoomata sisään; viivalla varustettua vihreää pistettä, niin voit zoomata ulos tai vihreitä nuolia, niin pääset viereisille kartoille.


METAR-TAF: